Time;durP1;ratioP1;P1;durP2;ratioP2;P2;SDS_P1;SDS_P2;PMS_P1;PMS_P2;Temp;Humidity;BMP_temperature;BMP_pressure;BME280_temperature;BME280_humidity;BME280_pressure;Samples;Min_cycle;Max_cycle;Signal;HPM_P1;HPM_P2
2023/12/15 00:01:58;;;;;;;9.02;1.77;;;7.20;99.90;;;;;;5090516;28;20539;-70
2023/12/15 00:04:25;;;;;;;10.57;1.70;;;7.10;99.90;;;;;;5090696;28;20040;-62
2023/12/15 00:06:53;;;;;;;7.90;2.50;;;7.10;99.90;;;;;;5091308;28;20493;-66
2023/12/15 00:09:23;;;;;;;15.93;2.10;;;7.10;99.90;;;;;;5090959;28;20408;-63
2023/12/15 00:11:51;;;;;;;11.40;2.22;;;7.10;99.90;;;;;;5085048;28;20057;-62
2023/12/15 00:14:19;;;;;;;12.90;1.75;;;7.00;99.90;;;;;;5074663;28;20051;-62
2023/12/15 00:16:46;;;;;;;10.52;1.75;;;7.00;99.90;;;;;;5101419;28;20054;-62
2023/12/15 00:19:14;;;;;;;12.43;2.08;;;7.00;99.90;;;;;;5111215;28;20488;-63
2023/12/15 00:21:42;;;;;;;9.88;1.45;;;7.00;99.90;;;;;;5092888;28;20524;-62
2023/12/15 00:24:10;;;;;;;14.90;1.60;;;7.00;99.90;;;;;;5090574;28;20409;-62
2023/12/15 00:26:37;;;;;;;12.52;1.73;;;7.00;99.90;;;;;;5090897;28;20056;-62
2023/12/15 00:29:06;;;;;;;13.73;2.00;;;7.00;99.90;;;;;;5081448;28;20040;-62
2023/12/15 00:31:35;;;;;;;8.15;1.60;;;7.00;99.90;;;;;;5085274;28;20039;-62
2023/12/15 00:34:02;;;;;;;12.52;1.60;;;7.00;99.90;;;;;;5086950;28;20056;-62
2023/12/15 00:36:31;;;;;;;11.38;2.10;;;6.90;99.90;;;;;;5089542;28;20044;-62
2023/12/15 00:38:59;;;;;;;14.52;2.28;;;7.00;99.90;;;;;;5090137;28;20106;-64
2023/12/15 00:41:26;;;;;;;15.80;2.47;;;6.90;99.90;;;;;;5090645;28;20541;-62
2023/12/15 00:43:54;;;;;;;19.35;3.17;;;6.90;99.90;;;;;;5094102;28;20054;-62
2023/12/15 00:46:23;;;;;;;8.35;1.88;;;6.90;99.90;;;;;;5110675;28;20059;-63
2023/12/15 00:48:51;;;;;;;14.55;2.20;;;6.80;99.90;;;;;;5102354;28;20378;-62
2023/12/15 00:51:20;;;;;;;8.10;1.75;;;6.70;99.90;;;;;;5097155;28;20063;-62
2023/12/15 00:53:48;;;;;;;17.58;1.95;;;6.70;99.90;;;;;;5094619;28;20059;-62
2023/12/15 00:56:16;;;;;;;12.05;2.08;;;6.70;99.90;;;;;;5110630;28;20051;-62
2023/12/15 00:58:43;;;;;;;12.60;2.53;;;6.70;99.90;;;;;;5075661;28;20387;-64
2023/12/15 01:01:11;;;;;;;11.38;1.42;;;6.80;99.90;;;;;;5080318;28;20048;-63
2023/12/15 01:03:39;;;;;;;15.57;1.95;;;6.80;99.90;;;;;;5090190;28;20043;-67
2023/12/15 01:06:08;;;;;;;14.00;1.83;;;6.80;99.90;;;;;;5097975;28;20072;-65
2023/12/15 01:08:35;;;;;;;19.45;1.85;;;6.80;99.90;;;;;;5088920;28;20051;-62
2023/12/15 01:11:04;;;;;;;7.97;2.28;;;6.80;99.90;;;;;;5090234;28;20056;-62
2023/12/15 01:13:32;;;;;;;15.07;2.58;;;6.80;99.90;;;;;;5094658;28;20048;-63
2023/12/15 01:15:59;;;;;;;11.57;2.25;;;6.80;99.90;;;;;;5080516;28;20052;-61
2023/12/15 01:18:27;;;;;;;10.60;2.45;;;6.90;99.90;;;;;;5102385;28;20044;-62
2023/12/15 01:20:55;;;;;;;17.83;2.88;;;6.80;99.90;;;;;;5089853;28;20055;-62
2023/12/15 01:23:23;;;;;;;13.57;1.65;;;6.90;99.90;;;;;;5077231;28;20046;-64
2023/12/15 01:25:51;;;;;;;9.05;1.42;;;6.90;99.90;;;;;;5110126;28;20401;-64
2023/12/15 01:28:20;;;;;;;15.02;2.30;;;6.90;99.90;;;;;;5107772;28;20047;-63
2023/12/15 01:30:47;;;;;;;23.60;1.85;;;6.90;99.90;;;;;;5089436;28;20047;-62
2023/12/15 01:33:16;;;;;;;11.18;2.10;;;6.90;99.90;;;;;;5087407;28;20044;-63
2023/12/15 01:35:44;;;;;;;9.05;1.52;;;6.90;99.90;;;;;;5069528;28;20052;-62
2023/12/15 01:38:12;;;;;;;9.55;1.33;;;6.90;99.90;;;;;;5074762;28;20059;-62
2023/12/15 01:40:40;;;;;;;15.18;2.58;;;7.00;99.90;;;;;;5089371;28;20039;-62
2023/12/15 01:43:07;;;;;;;14.23;2.70;;;6.90;99.90;;;;;;5089891;28;20048;-62
2023/12/15 01:45:35;;;;;;;9.57;1.67;;;6.90;99.90;;;;;;5088334;28;20059;-62
2023/12/15 01:48:05;;;;;;;8.85;1.88;;;6.90;99.90;;;;;;5088393;28;20040;-62
2023/12/15 01:50:33;;;;;;;9.38;1.33;;;6.90;99.90;;;;;;5089352;28;20047;-62
2023/12/15 01:53:01;;;;;;;16.27;2.35;;;6.90;99.90;;;;;;5089122;28;20055;-63
2023/12/15 01:55:29;;;;;;;12.68;1.88;;;6.90;99.90;;;;;;5089099;28;20048;-62
2023/12/15 01:57:57;;;;;;;10.25;1.30;;;6.90;99.90;;;;;;5089005;28;20051;-62
2023/12/15 02:00:25;;;;;;;13.13;2.13;;;6.90;99.90;;;;;;5078910;28;20055;-62
2023/12/15 02:02:53;;;;;;;13.50;2.08;;;6.90;99.90;;;;;;5090553;28;20059;-62
2023/12/15 02:05:20;;;;;;;10.35;1.48;;;6.90;99.90;;;;;;5092188;28;20047;-63
2023/12/15 02:07:51;;;;;;;9.98;1.60;;;6.90;99.90;;;;;;5087642;28;20040;-65
2023/12/15 02:10:19;;;;;;;19.40;1.75;;;7.00;99.90;;;;;;5088917;28;20043;-66
2023/12/15 02:12:47;;;;;;;11.68;1.38;;;6.90;99.90;;;;;;5087937;28;20048;-68
2023/12/15 02:15:17;;;;;;;7.65;1.73;;;7.00;99.90;;;;;;5076846;28;20052;-63
2023/12/15 02:17:45;;;;;;;10.45;1.48;;;7.00;99.90;;;;;;5090772;28;20052;-63
2023/12/15 02:20:13;;;;;;;9.35;2.15;;;6.90;99.90;;;;;;5087621;28;20056;-63
2023/12/15 02:22:42;;;;;;;14.13;1.67;;;7.00;99.90;;;;;;5088613;28;20508;-62
2023/12/15 02:25:09;;;;;;;11.43;1.70;;;7.00;99.90;;;;;;5083568;28;20047;-63
2023/12/15 02:27:39;;;;;;;13.60;2.10;;;7.00;99.90;;;;;;5079093;28;20040;-62
2023/12/15 02:30:08;;;;;;;;;;;6.90;99.90;;;;;;5080393;28;20079;-62
2023/12/15 02:32:36;;;;;;;6.30;1.15;;;6.90;99.90;;;;;;5072498;28;20308;-64
2023/12/15 02:35:04;;;;;;;9.65;1.83;;;6.90;99.90;;;;;;5071704;28;20409;-63
2023/12/15 02:37:32;;;;;;;13.30;1.98;;;6.90;99.90;;;;;;5070233;28;20048;-62
2023/12/15 02:40:00;;;;;;;7.45;1.90;;;6.80;99.90;;;;;;5072107;28;20037;-62
2023/12/15 02:42:28;;;;;;;10.32;1.77;;;6.80;99.90;;;;;;5090722;28;20040;-62
2023/12/15 02:44:56;;;;;;;8.68;1.92;;;6.80;99.90;;;;;;5087877;28;20047;-62
2023/12/15 02:47:24;;;;;;;10.10;2.90;;;6.80;99.90;;;;;;5091656;28;20424;-62
2023/12/15 02:49:54;;;;;;;9.73;1.55;;;6.70;99.90;;;;;;5091524;28;20051;-62
2023/12/15 02:52:21;;;;;;;;;;;6.70;99.90;;;;;;5091984;28;20044;-61
2023/12/15 02:54:49;;;;;;;13.52;1.88;;;6.60;99.90;;;;;;5091160;28;20482;-62
2023/12/15 02:57:17;;;;;;;9.38;1.92;;;6.60;99.90;;;;;;5091344;28;20063;-62
2023/12/15 02:59:44;;;;;;;18.27;1.95;;;6.60;99.90;;;;;;5089303;28;20048;-62
2023/12/15 03:02:12;;;;;;;10.90;1.65;;;6.60;99.90;;;;;;5101360;28;20522;-62
2023/12/15 03:04:40;;;;;;;10.20;1.25;;;6.50;99.90;;;;;;5106149;28;21818;-62
2023/12/15 03:07:08;;;;;;;16.08;1.63;;;6.60;99.90;;;;;;5090134;28;20047;-62
2023/12/15 03:09:36;;;;;;;19.10;2.70;;;6.50;99.90;;;;;;5090537;28;20508;-66
2023/12/15 03:12:04;;;;;;;9.43;1.55;;;6.50;99.90;;;;;;5091252;28;20052;-62
2023/12/15 03:14:32;;;;;;;15.75;2.33;;;6.40;99.90;;;;;;5091068;28;20036;-68
2023/12/15 03:17:00;;;;;;;13.63;1.45;;;6.40;99.90;;;;;;5105645;28;20044;-71
2023/12/15 03:19:28;;;;;;;17.52;2.95;;;6.40;99.90;;;;;;5109873;28;20040;-71
2023/12/15 03:21:56;;;;;;;17.58;2.95;;;6.30;99.90;;;;;;5111671;28;20047;-69
2023/12/15 03:24:23;;;;;;;13.85;2.08;;;6.30;99.90;;;;;;5111356;28;20054;-69
2023/12/15 03:26:51;;;;;;;12.20;1.95;;;6.30;99.90;;;;;;5109285;28;20047;-70
2023/12/15 03:29:21;;;;;;;12.40;1.73;;;6.20;99.90;;;;;;5089204;28;20501;-70
2023/12/15 03:31:49;;;;;;;14.73;1.77;;;6.20;99.90;;;;;;5087724;28;20055;-70
2023/12/15 03:34:16;;;;;;;16.10;2.00;;;6.20;99.90;;;;;;5091355;28;20481;-70
2023/12/15 03:36:44;;;;;;;22.25;1.63;;;6.10;99.90;;;;;;5091082;28;20063;-71
2023/12/15 03:39:12;;;;;;;12.02;2.35;;;6.10;99.90;;;;;;5091203;28;20393;-70
2023/12/15 03:41:40;;;;;;;14.07;2.17;;;6.10;99.90;;;;;;5090347;28;20040;-65
2023/12/15 03:44:08;;;;;;;13.15;1.63;;;6.20;99.90;;;;;;5091225;28;20052;-69
2023/12/15 03:46:35;;;;;;;16.38;1.80;;;6.20;99.90;;;;;;5099205;28;20058;-67
2023/12/15 03:49:03;;;;;;;10.57;1.70;;;6.30;99.90;;;;;;5070815;28;20406;-69
2023/12/15 03:51:31;;;;;;;13.43;1.70;;;6.30;99.90;;;;;;5070763;28;20036;-70
2023/12/15 03:53:59;;;;;;;14.82;1.85;;;6.30;99.90;;;;;;5070526;28;20049;-65
2023/12/15 03:56:28;;;;;;;10.55;1.75;;;6.40;99.90;;;;;;5089895;28;20040;-63
2023/12/15 03:59:05;;;;;;;13.05;2.92;;;6.40;99.90;;;;;;5090898;28;20055;-64
2023/12/15 04:01:33;;;;;;;9.32;1.75;;;6.50;99.90;;;;;;5090866;28;20036;-65
2023/12/15 04:04:01;;;;;;;15.60;2.00;;;6.50;99.90;;;;;;5090858;28;20478;-71
2023/12/15 04:10:05;;;;;;;10.50;1.75;;;6.60;99.90;;;;;;5803941;23;20029;-65
2023/12/15 04:12:33;;;;;;;12.65;1.80;;;6.70;99.90;;;;;;4874437;29;20432;-64
2023/12/15 04:15:01;;;;;;;11.13;2.13;;;6.60;99.90;;;;;;4880521;29;20519;-62
2023/12/15 04:17:29;;;;;;;12.50;1.75;;;6.70;99.90;;;;;;4879281;29;20049;-62
2023/12/15 04:19:57;;;;;;;13.90;2.17;;;6.70;99.90;;;;;;4875521;29;20052;-63
2023/12/15 04:22:25;;;;;;;13.57;1.73;;;6.70;99.90;;;;;;4881144;29;20059;-62
2023/12/15 04:24:53;;;;;;;11.60;2.47;;;6.70;99.90;;;;;;4879279;29;20064;-68
2023/12/15 04:27:21;;;;;;;7.93;1.63;;;6.70;99.90;;;;;;4878640;29;20072;-70
2023/12/15 04:29:48;;;;;;;8.55;1.80;;;6.80;99.90;;;;;;4880487;29;20049;-71
2023/12/15 04:32:16;;;;;;;12.43;2.58;;;6.80;99.90;;;;;;4863753;29;20052;-66
2023/12/15 04:34:44;;;;;;;12.70;2.88;;;6.80;99.90;;;;;;4879692;29;20520;-71
2023/12/15 04:37:12;;;;;;;12.75;2.08;;;6.80;99.90;;;;;;4880284;29;20048;-71
2023/12/15 04:39:40;;;;;;;11.82;2.13;;;6.80;99.90;;;;;;4879515;29;20050;-71
2023/12/15 04:42:08;;;;;;;14.45;1.88;;;6.70;99.90;;;;;;4880259;29;20049;-69
2023/12/15 04:44:36;;;;;;;13.60;3.05;;;6.70;99.90;;;;;;4880352;29;20385;-70
2023/12/15 04:47:05;;;;;;;10.38;1.98;;;6.60;99.90;;;;;;4878980;29;20397;-71
2023/12/15 04:49:32;;;;;;;11.52;1.50;;;6.60;99.90;;;;;;4880334;29;20049;-71
2023/12/15 04:52:00;;;;;;;15.68;1.95;;;6.60;99.90;;;;;;4878094;29;20057;-72
2023/12/15 04:54:28;;;;;;;11.18;1.45;;;6.60;99.90;;;;;;4878478;29;20057;-71
2023/12/15 04:56:56;;;;;;;13.40;1.85;;;6.60;99.90;;;;;;4879985;29;20504;-67
2023/12/15 04:59:24;;;;;;;11.50;1.83;;;6.60;99.90;;;;;;4879197;29;20049;-73
2023/12/15 05:01:52;;;;;;;24.67;2.50;;;6.50;99.90;;;;;;4880043;29;20505;-69
2023/12/15 05:04:20;;;;;;;13.05;2.20;;;6.50;99.90;;;;;;4879920;29;20429;-71
2023/12/15 05:06:48;;;;;;;17.75;2.50;;;6.50;99.90;;;;;;4879476;29;20053;-71
2023/12/15 05:09:16;;;;;;;13.10;1.75;;;6.50;99.90;;;;;;4878897;29;20052;-71
2023/12/15 05:11:43;;;;;;;12.32;2.28;;;6.50;99.90;;;;;;4868958;29;20490;-71
2023/12/15 05:14:11;;;;;;;11.32;2.13;;;6.50;99.90;;;;;;4863221;29;20056;-73
2023/12/15 05:16:39;;;;;;;11.90;1.58;;;6.50;99.90;;;;;;4861186;29;20065;-70
2023/12/15 05:19:07;;;;;;;9.77;1.30;;;6.50;99.90;;;;;;4860882;29;20052;-63
2023/12/15 05:21:35;;;;;;;16.65;2.13;;;6.50;99.90;;;;;;4870506;29;20053;-65
2023/12/15 05:24:03;;;;;;;12.68;2.22;;;6.50;99.90;;;;;;4877308;29;20060;-61
2023/12/15 05:26:31;;;;;;;10.88;1.73;;;6.50;99.90;;;;;;4879593;29;20798;-63
2023/12/15 05:28:59;;;;;;;10.63;1.73;;;6.50;99.90;;;;;;4871102;29;20493;-61
2023/12/15 05:31:27;;;;;;;19.23;3.10;;;6.50;99.90;;;;;;4869289;29;20049;-62
2023/12/15 05:33:55;;;;;;;9.30;1.58;;;6.50;99.90;;;;;;4863705;29;20421;-61
2023/12/15 05:36:23;;;;;;;16.38;2.00;;;6.50;99.90;;;;;;4867351;29;20049;-61
2023/12/15 05:38:52;;;;;;;9.82;1.77;;;6.60;99.90;;;;;;4876126;29;20049;-61
2023/12/15 05:41:22;;;;;;;10.60;1.90;;;6.60;99.90;;;;;;4863317;29;20600;-61
2023/12/15 05:43:50;;;;;;;15.77;1.95;;;6.60;99.90;;;;;;4878895;29;20057;-62
2023/12/15 05:46:19;;;;;;;9.95;1.77;;;6.60;99.90;;;;;;4879190;29;20048;-61
2023/12/15 05:48:47;;;;;;;20.73;2.58;;;6.60;99.90;;;;;;4862643;29;20409;-61
2023/12/15 05:51:16;;;;;;;20.00;3.15;;;6.60;99.90;;;;;;4861257;29;20437;-61
2023/12/15 05:53:44;;;;;;;13.45;1.95;;;6.60;99.90;;;;;;4864513;29;20060;-61
2023/12/15 05:56:24;;;;;;;14.43;2.70;;;6.70;99.90;;;;;;4875584;29;20501;-62
2023/12/15 05:58:52;;;;;;;15.15;2.33;;;6.70;99.90;;;;;;4861793;29;20054;-62
2023/12/15 06:01:20;;;;;;;24.60;3.13;;;6.70;99.90;;;;;;4857565;29;20049;-61
2023/12/15 06:03:48;;;;;;;14.82;2.40;;;6.60;99.90;;;;;;4855976;29;20552;-62
2023/12/15 06:06:16;;;;;;;14.63;2.47;;;6.70;99.90;;;;;;4853644;29;20055;-62
2023/12/15 06:08:44;;;;;;;17.80;2.83;;;6.60;99.90;;;;;;4853215;29;20049;-60
2023/12/15 06:11:11;;;;;;;8.75;1.30;;;6.60;99.90;;;;;;4852233;29;20057;-61
2023/12/15 06:13:41;;;;;;;16.48;2.17;;;6.60;99.90;;;;;;4862736;29;20464;-62
2023/12/15 06:16:19;;;;;;;11.45;1.90;;;6.50;99.90;;;;;;4862141;29;20068;-62
2023/12/15 06:18:47;;;;;;;21.20;2.55;;;6.50;99.90;;;;;;4853832;29;20057;-63
2023/12/15 06:21:26;;;;;;;7.78;1.48;;;6.40;99.90;;;;;;4853303;29;20405;-62
2023/12/15 06:23:59;;;;;;;20.88;2.13;;;6.40;99.90;;;;;;4870039;29;20052;-62
2023/12/15 06:26:27;;;;;;;11.90;2.47;;;6.30;99.90;;;;;;4870554;29;20056;-64
2023/12/15 06:28:55;;;;;;;13.82;2.08;;;6.20;99.90;;;;;;4859130;29;20412;-63
2023/12/15 06:31:29;;;;;;;14.10;2.08;;;6.20;99.90;;;;;;4853737;29;20069;-68
2023/12/15 06:33:56;;;;;;;13.93;2.33;;;6.10;99.90;;;;;;4868766;29;20065;-67
2023/12/15 06:36:26;;;;;;;10.57;2.40;;;6.10;99.90;;;;;;4870861;29;20390;-63
2023/12/15 06:38:57;;;;;;;15.00;3.63;;;6.00;99.90;;;;;;4861068;29;20064;-61
2023/12/15 06:41:25;;;;;;;12.30;1.45;;;6.00;99.90;;;;;;4854194;29;20046;-61
2023/12/15 06:43:53;;;;;;;14.95;1.85;;;5.90;99.90;;;;;;4871951;29;20048;-61
2023/12/15 06:46:21;;;;;;;18.75;2.38;;;5.90;99.90;;;;;;4864177;29;20058;-60
2023/12/15 06:48:49;;;;;;;15.55;1.98;;;5.90;99.90;;;;;;4860823;29;20058;-61
2023/12/15 06:51:17;;;;;;;15.10;2.00;;;5.90;99.90;;;;;;4856153;29;20046;-61
2023/12/15 06:53:45;;;;;;;15.40;1.65;;;5.90;99.90;;;;;;4870768;29;20485;-61
2023/12/15 06:56:13;;;;;;;12.57;2.50;;;5.90;99.90;;;;;;4861073;29;20061;-62
2023/12/15 06:58:40;;;;;;;8.80;1.50;;;5.90;99.90;;;;;;4874679;29;20053;-62
2023/12/15 07:01:08;;;;;;;10.60;2.20;;;5.80;99.90;;;;;;4873346;29;20049;-63
2023/12/15 07:03:36;;;;;;;18.60;3.50;;;5.80;99.90;;;;;;4863735;29;20064;-64
2023/12/15 07:06:05;;;;;;;11.68;1.92;;;5.80;99.90;;;;;;4857822;29;20045;-62
2023/12/15 07:08:33;;;;;;;15.63;1.83;;;5.80;99.90;;;;;;4866172;29;20056;-62
2023/12/15 07:11:01;;;;;;;13.77;2.42;;;5.90;99.90;;;;;;4870734;29;20054;-65
2023/12/15 07:13:30;;;;;;;11.95;1.80;;;6.00;99.90;;;;;;4863031;29;20659;-63
2023/12/15 07:15:58;;;;;;;12.30;1.42;;;6.10;99.90;;;;;;4870904;29;20052;-62
2023/12/15 07:18:30;;;;;;;10.55;1.98;;;6.20;99.90;;;;;;4858143;29;20056;-62
2023/12/15 07:20:58;;;;;;;15.10;2.05;;;6.30;99.90;;;;;;4860108;29;20486;-62
2023/12/15 07:23:25;;;;;;;20.65;2.40;;;6.40;99.90;;;;;;4866264;29;20049;-65
2023/12/15 07:25:53;;;;;;;14.70;2.03;;;6.60;99.90;;;;;;4873498;29;20498;-61
2023/12/15 07:28:21;;;;;;;12.30;2.08;;;6.70;99.90;;;;;;4859463;29;20049;-61
2023/12/15 07:30:49;;;;;;;12.63;1.55;;;6.80;99.90;;;;;;4853051;29;20060;-62
2023/12/15 07:33:16;;;;;;;11.93;1.92;;;6.90;99.90;;;;;;4863630;29;20068;-65
2023/12/15 07:35:44;;;;;;;9.75;1.38;;;7.00;99.90;;;;;;4854865;29;20061;-66
2023/12/15 07:38:12;;;;;;;14.02;1.88;;;7.00;99.90;;;;;;4859100;29;20135;-63
2023/12/15 07:40:40;;;;;;;17.48;2.35;;;7.10;99.90;;;;;;4858322;29;20041;-62
2023/12/15 07:43:08;;;;;;;21.80;3.40;;;7.10;99.90;;;;;;4861544;29;20410;-61
2023/12/15 07:45:36;;;;;;;12.60;1.55;;;7.10;99.90;;;;;;4872608;29;20318;-62
2023/12/15 07:48:04;;;;;;;14.45;2.75;;;7.20;99.90;;;;;;4865424;29;20053;-65
2023/12/15 07:50:32;;;;;;;13.23;2.50;;;7.20;99.90;;;;;;4866668;29;20041;-64
2023/12/15 07:53:00;;;;;;;12.85;2.80;;;7.20;99.90;;;;;;4855711;29;20057;-62
2023/12/15 07:55:28;;;;;;;7.53;1.88;;;7.20;99.90;;;;;;4858481;29;20053;-62
2023/12/15 07:57:56;;;;;;;7.97;1.70;;;7.30;99.90;;;;;;4857264;29;20053;-62
2023/12/15 08:00:24;;;;;;;9.80;1.95;;;7.30;99.90;;;;;;4865604;29;20481;-61
2023/12/15 08:02:52;;;;;;;13.73;1.73;;;7.30;99.90;;;;;;4869508;29;20401;-63
2023/12/15 08:05:20;;;;;;;13.90;2.15;;;7.30;99.90;;;;;;4874284;29;20056;-63
2023/12/15 08:07:48;;;;;;;17.20;2.78;;;7.30;99.90;;;;;;4871450;29;20341;-61
2023/12/15 08:10:16;;;;;;;14.35;1.77;;;7.30;99.90;;;;;;4860314;29;20053;-63
2023/12/15 08:12:43;;;;;;;17.10;2.00;;;7.30;99.90;;;;;;4859734;29;20060;-68
2023/12/15 08:15:11;;;;;;;20.60;2.20;;;7.20;99.90;;;;;;4874452;29;20516;-65
2023/12/15 08:17:39;;;;;;;12.30;2.75;;;7.20;99.90;;;;;;4873192;29;20482;-63
2023/12/15 08:20:09;;;;;;;11.13;1.55;;;7.20;99.90;;;;;;4858014;29;20065;-62
2023/12/15 08:22:37;;;;;;;12.80;1.88;;;7.20;99.90;;;;;;4860815;29;20057;-61
2023/12/15 08:25:05;;;;;;;6.93;1.13;;;7.20;99.90;;;;;;4872294;29;20064;-61
2023/12/15 08:27:37;;;;;;;11.32;1.48;;;7.20;99.90;;;;;;4873029;29;20061;-61
2023/12/15 08:30:07;;;;;;;8.57;1.60;;;7.20;99.90;;;;;;4868093;29;20473;-62
2023/12/15 08:32:35;;;;;;;12.07;2.60;;;7.30;99.90;;;;;;4859654;29;20060;-61
2023/12/15 08:35:04;;;;;;;10.40;1.30;;;7.30;99.90;;;;;;4873135;29;20064;-63
2023/12/15 08:37:33;;;;;;;11.20;1.98;;;7.30;99.90;;;;;;4863855;29;20064;-71
2023/12/15 08:40:01;;;;;;;10.77;1.42;;;7.30;99.90;;;;;;4864837;29;20061;-68
2023/12/15 08:42:28;;;;;;;9.23;1.60;;;7.30;99.90;;;;;;4868759;29;20060;-71
2023/12/15 08:44:56;;;;;;;18.20;1.95;;;7.30;99.90;;;;;;4866263;29;20053;-71
2023/12/15 08:47:24;;;;;;;12.15;2.50;;;7.30;99.90;;;;;;4866033;29;20394;-72
2023/12/15 08:49:52;;;;;;;12.05;1.70;;;7.30;99.90;;;;;;4866853;29;20068;-68
2023/12/15 08:52:20;;;;;;;7.60;1.70;;;7.40;99.90;;;;;;4868857;29;20045;-65
2023/12/15 08:54:47;;;;;;;6.63;1.65;;;7.40;99.90;;;;;;4876707;29;20532;-71
2023/12/15 08:57:15;;;;;;;8.00;1.48;;;7.40;99.90;;;;;;4874777;29;20058;-72
2023/12/15 08:59:43;;;;;;;10.80;1.65;;;7.40;99.90;;;;;;4868984;29;20060;-70
2023/12/15 09:02:12;;;;;;;10.30;2.03;;;7.50;99.90;;;;;;4860045;29;20056;-65
2023/12/15 09:04:40;;;;;;;11.90;1.85;;;7.50;99.90;;;;;;4872200;29;20049;-62
2023/12/15 09:07:23;;;;;;;8.85;1.88;;;7.50;99.90;;;;;;4852130;29;20052;-62
2023/12/15 09:09:52;;;;;;;20.67;1.70;;;7.50;99.90;;;;;;4864416;29;20054;-62
2023/12/15 09:12:19;;;;;;;14.60;1.63;;;7.50;99.90;;;;;;4860398;29;20060;-63
2023/12/15 09:14:47;;;;;;;13.07;1.67;;;7.50;99.90;;;;;;4867932;29;20076;-62
2023/12/15 09:17:15;;;;;;;10.00;1.70;;;7.50;99.90;;;;;;4861618;29;20045;-62
2023/12/15 09:19:43;;;;;;;7.30;0.95;;;7.50;99.90;;;;;;4866159;29;20061;-62
2023/12/15 09:22:11;;;;;;;10.13;1.77;;;7.50;99.90;;;;;;4867196;29;20041;-67
2023/12/15 09:24:39;;;;;;;11.65;1.95;;;7.60;99.90;;;;;;4856931;29;20420;-63
2023/12/15 09:27:07;;;;;;;9.90;2.42;;;7.60;99.90;;;;;;4859399;29;20041;-62
2023/12/15 09:29:35;;;;;;;9.68;2.28;;;7.60;99.90;;;;;;4862908;29;20048;-65
2023/12/15 09:32:06;;;;;;;16.35;1.80;;;7.60;99.90;;;;;;4861503;29;20045;-67
2023/12/15 09:34:35;;;;;;;15.35;2.58;;;7.60;99.90;;;;;;4874636;29;20073;-67
2023/12/15 09:37:13;;;;;;;11.05;1.42;;;7.60;99.90;;;;;;4886154;29;20064;-62
2023/12/15 09:39:41;;;;;;;8.57;1.20;;;7.60;99.90;;;;;;4857766;29;20058;-62
2023/12/15 09:42:09;;;;;;;4.35;1.27;;;7.70;99.90;;;;;;4861106;29;20517;-61
2023/12/15 09:44:37;;;;;;;6.45;1.40;;;7.70;99.90;;;;;;4867605;29;20049;-62
2023/12/15 09:47:30;;;;;;;3.58;1.52;;;7.80;99.90;;;;;;4860185;29;20042;-61
2023/12/15 09:50:04;;;;;;;10.07;2.40;;;7.90;99.90;;;;;;4862459;29;20057;-63
2023/12/15 09:52:32;;;;;;;7.35;1.35;;;7.80;99.90;;;;;;4863120;29;20060;-66
2023/12/15 09:55:00;;;;;;;9.38;1.52;;;7.80;99.90;;;;;;4865661;29;20061;-67
2023/12/15 09:57:29;;;;;;;6.95;1.35;;;7.80;99.90;;;;;;4873144;29;20067;-73
2023/12/15 09:59:57;;;;;;;9.18;2.13;;;7.80;99.90;;;;;;4869895;29;20497;-65
2023/12/15 10:02:25;;;;;;;12.23;1.75;;;7.90;99.90;;;;;;4870478;29;20504;-70
2023/12/15 10:04:57;;;;;;;8.88;2.17;;;7.90;99.90;;;;;;4864396;29;20058;-64
2023/12/15 10:07:25;;;;;;;12.32;1.80;;;7.90;99.90;;;;;;4857297;29;20050;-64
2023/12/15 10:09:53;;;;;;;13.77;1.60;;;7.90;99.90;;;;;;4875128;29;20057;-65
2023/12/15 10:12:20;;;;;;;10.85;1.58;;;7.90;99.90;;;;;;4865884;29;20084;-63
2023/12/15 10:14:49;;;;;;;7.32;1.35;;;7.90;99.90;;;;;;4865009;29;20056;-67
2023/12/15 10:17:17;;;;;;;6.80;1.10;;;7.90;99.90;;;;;;4868600;29;20060;-62
2023/12/15 10:19:45;;;;;;;13.55;1.40;;;7.90;99.90;;;;;;4849174;29;20394;-62
2023/12/15 10:22:13;;;;;;;7.78;1.52;;;8.00;99.90;;;;;;4867071;29;20045;-61
2023/12/15 10:24:41;;;;;;;8.15;1.52;;;8.00;99.90;;;;;;4869968;29;20048;-61
2023/12/15 10:27:10;;;;;;;8.75;2.22;;;8.00;99.90;;;;;;4873402;29;20052;-61
2023/12/15 10:29:38;;;;;;;8.75;1.38;;;8.00;99.90;;;;;;4861060;29;20057;-61
2023/12/15 10:32:15;;;;;;;14.18;1.95;;;8.10;99.90;;;;;;4858378;29;20417;-61
2023/12/15 10:34:43;;;;;;;11.43;1.25;;;8.10;99.90;;;;;;4853110;29;20506;-63
2023/12/15 10:37:10;;;;;;;10.50;1.85;;;8.10;99.90;;;;;;4872350;29;20049;-62
2023/12/15 10:39:38;;;;;;;6.68;2.20;;;8.20;99.90;;;;;;4858898;29;20053;-63
2023/12/15 10:42:07;;;;;;;8.43;1.17;;;8.20;99.90;;;;;;4857016;29;20045;-61
2023/12/15 10:44:36;;;;;;;9.82;1.42;;;8.20;99.90;;;;;;4859679;29;20053;-61
2023/12/15 10:47:06;;;;;;;6.33;1.37;;;8.20;99.90;;;;;;4856682;29;20054;-67
2023/12/15 10:49:36;;;;;;;;;;;8.20;99.90;;;;;;4866155;29;20304;-69
2023/12/15 10:52:19;;;;;;;12.52;1.88;;;8.20;99.90;;;;;;4861271;29;19932;-66
2023/12/15 10:54:52;;;;;;;11.48;1.65;;;8.30;99.90;;;;;;4870170;29;20131;-64
2023/12/15 10:57:20;;;;;;;7.10;1.65;;;8.30;99.90;;;;;;4866883;29;20058;-68
2023/12/15 10:59:50;;;;;;;12.13;2.15;;;8.30;99.90;;;;;;4867793;29;20044;-65
2023/12/15 11:02:20;;;;;;;7.47;0.98;;;8.30;99.90;;;;;;4869861;29;20056;-66
2023/12/15 11:04:49;;;;;;;7.32;1.08;;;8.30;99.90;;;;;;4859201;29;20086;-70
2023/12/15 11:07:24;;;;;;;8.57;1.30;;;8.30;99.90;;;;;;4870897;29;20421;-72
2023/12/15 11:09:52;;;;;;;6.75;1.08;;;8.40;99.90;;;;;;4861002;29;20045;-71
2023/12/15 11:12:23;;;;;;;6.72;1.35;;;8.30;99.90;;;;;;4865318;29;20061;-62
2023/12/15 11:14:53;;;;;;;9.75;1.50;;;8.40;99.90;;;;;;4865975;29;20056;-64
2023/12/15 11:17:21;;;;;;;9.63;1.60;;;8.40;99.90;;;;;;4861810;29;20053;-64
2023/12/15 11:19:51;;;;;;;8.43;1.10;;;8.50;99.90;;;;;;4868992;29;20053;-67
2023/12/15 11:22:21;;;;;;;8.93;1.30;;;8.40;99.90;;;;;;4862485;29;20049;-62
2023/12/15 11:24:49;;;;;;;8.45;0.93;;;8.40;99.90;;;;;;4871225;29;20049;-62
2023/12/15 11:27:16;;;;;;;4.72;1.33;;;8.50;99.90;;;;;;4862848;29;20640;-66
2023/12/15 11:29:44;;;;;;;5.45;1.23;;;8.50;99.90;;;;;;4869110;29;20041;-64
2023/12/15 11:32:33;;;;;;;8.95;1.48;;;8.50;99.90;;;;;;4873354;29;20100;-69
2023/12/15 11:35:03;;;;;;;12.07;1.90;;;8.60;99.90;;;;;;4865011;29;20056;-62
2023/12/15 11:37:32;;;;;;;17.73;1.70;;;8.60;99.90;;;;;;4869517;29;20073;-62
2023/12/15 11:40:01;;;;;;;4.82;1.33;;;8.70;99.90;;;;;;4860820;29;20041;-64
2023/12/15 11:42:30;;;;;;;9.50;1.38;;;8.70;99.90;;;;;;4860537;29;20049;-63
2023/12/15 11:44:58;;;;;;;11.15;1.30;;;8.70;99.90;;;;;;4862862;29;20053;-63
2023/12/15 11:47:27;;;;;;;9.23;1.75;;;8.80;99.90;;;;;;4859533;29;20393;-63
2023/12/15 11:49:54;;;;;;;9.00;1.67;;;8.80;99.90;;;;;;4856395;29;20065;-63
2023/12/15 11:52:22;;;;;;;8.27;1.35;;;8.80;99.90;;;;;;4858458;29;20652;-63
2023/12/15 11:54:50;;;;;;;20.75;2.38;;;8.80;99.90;;;;;;4865750;29;20061;-62
2023/12/15 11:57:18;;;;;;;10.80;1.70;;;8.80;99.90;;;;;;4861076;29;20045;-68
2023/12/15 11:59:46;;;;;;;12.95;2.03;;;8.90;99.90;;;;;;4861725;29;20473;-61
2023/12/15 12:02:17;;;;;;;7.22;2.20;;;8.90;99.90;;;;;;4869267;29;20049;-69
2023/12/15 12:04:48;;;;;;;14.10;3.03;;;8.90;99.90;;;;;;4865927;29;20072;-64
2023/12/15 12:07:16;;;;;;;14.75;1.70;;;8.90;99.90;;;;;;4861292;29;20401;-61
2023/12/15 12:09:45;;;;;;;9.98;2.00;;;8.90;99.90;;;;;;4871906;29;20072;-61
2023/12/15 12:12:13;;;;;;;14.73;1.90;;;8.90;99.90;;;;;;4861821;29;20068;-62
2023/12/15 12:14:44;;;;;;;10.68;2.22;;;8.90;99.90;;;;;;4864121;29;20057;-66
2023/12/15 12:17:12;;;;;;;11.32;2.20;;;8.90;99.90;;;;;;4869513;29;20057;-63
2023/12/15 12:19:43;;;;;;;10.10;1.67;;;8.90;99.90;;;;;;4871576;29;20045;-63
2023/12/15 12:22:13;;;;;;;10.60;1.77;;;8.90;99.90;;;;;;4860970;29;20053;-63
2023/12/15 12:24:40;;;;;;;14.00;3.80;;;8.90;99.90;;;;;;4872716;29;20056;-64
2023/12/15 12:27:08;;;;;;;12.48;2.90;;;8.90;99.90;;;;;;4866716;29;20449;-63
2023/12/15 12:29:39;;;;;;;14.38;4.40;;;9.00;99.90;;;;;;4867214;29;20489;-63
2023/12/15 12:32:09;;;;;;;17.35;2.50;;;8.90;99.90;;;;;;4868727;29;20054;-68
2023/12/15 12:34:37;;;;;;;12.88;1.88;;;9.00;99.90;;;;;;4869507;29;20037;-63
2023/12/15 12:37:05;;;;;;;15.10;2.50;;;9.00;99.90;;;;;;4878571;29;20064;-63
2023/12/15 12:39:32;;;;;;;11.70;1.88;;;9.00;99.90;;;;;;4866828;29;20041;-61
2023/12/15 12:42:00;;;;;;;9.02;2.00;;;9.10;99.90;;;;;;4857042;29;20061;-63
2023/12/15 12:44:28;;;;;;;13.32;2.38;;;9.10;99.90;;;;;;4867765;29;20056;-62
2023/12/15 12:46:56;;;;;;;18.73;1.98;;;9.10;99.90;;;;;;4858773;29;20057;-63
2023/12/15 12:49:25;;;;;;;8.88;2.13;;;9.20;99.90;;;;;;4876643;29;20052;-61
2023/12/15 12:51:54;;;;;;;13.55;2.45;;;9.20;99.90;;;;;;4876720;29;20073;-61
2023/12/15 12:54:22;;;;;;;12.23;2.03;;;9.30;99.90;;;;;;4864588;29;20569;-64
2023/12/15 12:56:50;;;;;;;14.05;2.30;;;9.30;99.90;;;;;;4858026;29;20502;-64
2023/12/15 12:59:27;;;;;;;14.52;1.77;;;9.30;99.90;;;;;;4862261;29;20057;-64
2023/12/15 13:01:56;;;;;;;10.43;1.95;;;9.30;99.90;;;;;;4857116;29;20049;-62